Shenandoah National Park, VA

10:19 PM EDT op 01 oktober 2014 (GMT -0400)
Lord Willing Dr. | Change Station
CLOSE
Current Station
Persoonlijk weerstation
Location: Culpeper, VA
Geometrische hoogte: 499 ft
Nabije weerstations

Hoogte 499 ft 38.54 °N, 77.94 °W | Updated 0 second ago

Geheel bewolkt
Geheel bewolkt
64.3 °F
Voelt als 64.3 °F
N
0.0
Wind Variabel Wind van WZW
Gusts 0.0 mijl/u

Vandaag
Hoog -- | Laag -- °F
--% Kans op neerslag
Gisteren
Hoog -- | Laag -- °F
Precip. -- inches
7:07 AM 6:54 PM
Eerste kwartier, 53% visible
Druk 30.07 inches
Zicht 7.0 mijlen
Wolken Merendeels bewolkt 6000 ft
Dauwpunt 62 °F
Vochtigheid 94%
Neerslag 0.01 inches
Dikte sneeuw Niet beschikbaar.
UV 0 van de 12
Pollen 3.20 van de 12
Luchtkwaliteit Niet beschikbaar.
Flu Activity Niet beschikbaar.
METAR KCJR 020155Z AUTO 00000KT 7SM BKN060 18/17 A3007 RMK AO2

More Conditions Fewer Conditions

Druk 30.07 inches
Zicht 7.0 mijlen
Wolken Merendeels bewolkt 6000 ft
Dauwpunt 62 °F
Vochtigheid 94%
Neerslag 0.01 inches
Dikte sneeuw Niet beschikbaar.
UV 0 van de 12
Pollen 3.20 van de 12
Luchtkwaliteit Niet beschikbaar.
Flu Activity Niet beschikbaar.
METAR KCJR 020155Z AUTO 00000KT 7SM BKN060 18/17 A3007 RMK AO2

More Conditions Fewer Conditions

10-Day Weather Forecast

Almanac

Astronomie

Oct. 01, 2014 Opkomst Ondergang
Werkelijke tijd 7:07 AM EDT 6:54 PM EDT
Burgerlijke schemering 6:41 AM EDT 7:20 PM EDT
Nautische schemering 6:10 AM EDT 7:51 PM EDT
Astronomische schemering 5:39 AM EDT 8:22 PM EDT
Maan 2:03 PM EDT (10/1) Geen maanondergang
Golflengte van het zichtbare licht 12h 39m
Daglengte
11h 47m
Tomorrow will be 2m 28s shorter.
Eerste kwartier, 53% of the Moon is Illuminated
Vandaag
Eerste kwartier
oktober 8
Volle maan
oktober 15
Laatste kwartier
oktober 23
Nieuw
oktober 30
Eerste kwartier

Extremen vandaag

State Highs State Lows

Community

WunderPhotos

Upload Photos

1,758,137 foto’s ge-upload!

WunderBlogs® & News

Nearby

Dikte sneeuw

Station Depth Geometrische hoogte
Er is geen verse sneeuw gerapporteerd.

Aardbevingen

Stad Distance Mag. Time & Date
No recent earthquake activity has been reported nearby.
Minimum magnitude displayed is 2.5.

Watertemperatuur langs de kust

Plaats Temperatuur
Geen meldingen van stations

Nabije weerstations